RKNW METAR and TAF | Updated Today

RKNW METAR

Wonju/Hoengseong Air Base (K-38/K-46)

Observation time: 89 min. ago

RKNW 291912Z 06003KT 1200 BR BKN002 13/13 A3004 RMK CIG002

Need help? Read our tutorial on how to read METARs or read the parsed version below.

Wonju/Hoengseong Air Base (K-38/K-46) (RKNW) METAR

  • Weather conditions on Thu, 29 Sep 2022 19:12:00 +0000 (89 min. ago):
  • Present conditions: Mist
  • Clouds: Broken sky at 61 meters
  • Visibility: 1200 meters
  • Wind: 60 degrees at 3 knots
  • Temperature: 13 celsius
  • Dew point: 13 celsius
  • Pressure: 30.04 millibars
  • Remarks: CIG002


Useful to know...

RKNW TAF

Wonju/Hoengseong Air Base (K-38/K-46)

TAF not found.

Airports near RKNW

RKNC Weather
Region: Chun Chon City

Camp Page Airport (A-306)

Not found in our database
RKSM Weather
IATA: SSN
Region: Simgok-dong

Seoul Air Base (K-16)

Found in our database